SVA6EH LROP-OERK
Flight info
| Callsign | SVA6EH |
|---|---|
| Flight time | N/A |
| Altitude | 39000 |
| Route | NETUL1K/08L NETUL DCT CND DCT NITUX/N0451F380 DCT RIXEN/N0451F390 UL620 IST UT35 AYT UA16 TOMBI M855 RASDA A16 CVO L315 OBTAV DCT SOKOT L315 HGD M872 KAVUR |
| Aircraft | A20N/M-SDE2E3FGHIRWXY/LB1 |
Departure
| Time | N/A |
|---|---|
| Airport | Bucharest Henri Coandă International Airport (LROP) |
Arrival
| Time | 2026-05-01 13:51 |
|---|---|
| Airport | King Khalid International Airport (OERK) |
| Time | Latitude | Longitude | Altitude | Speed | Heading |
|---|---|---|---|---|---|
| 2026-05-01 13:28 | 24.52922 | 44.26298 | 38907 ft | 522 kts | 97° |
| 2026-05-01 13:28 | 24.52716 | 44.30282 | 38905 ft | 522 kts | 97° |
| 2026-05-01 13:29 | 24.51890 | 44.46192 | 38890 ft | 522 kts | 97° |
| 2026-05-01 13:30 | 24.53580 | 44.62057 | 38884 ft | 527 kts | 81° |
| 2026-05-01 13:31 | 24.54938 | 44.69968 | 38881 ft | 527 kts | 81° |
| 2026-05-01 13:32 | 24.58310 | 44.89783 | 38887 ft | 528 kts | 81° |
| 2026-05-01 13:33 | 24.60323 | 45.01692 | 38216 ft | 529 kts | 81° |
| 2026-05-01 13:33 | 24.61668 | 45.09705 | 36490 ft | 538 kts | 81° |
| 2026-05-01 13:34 | 24.63031 | 45.17845 | 34559 ft | 551 kts | 81° |
| 2026-05-01 13:34 | 24.63369 | 45.19866 | 34110 ft | 554 kts | 80° |
| 2026-05-01 13:35 | 24.64761 | 45.28200 | 32467 ft | 551 kts | 80° |
| 2026-05-01 13:35 | 24.65449 | 45.32333 | 31727 ft | 547 kts | 80° |
| 2026-05-01 13:35 | 24.66806 | 45.40503 | 30281 ft | 538 kts | 80° |
| 2026-05-01 13:36 | 24.67473 | 45.44533 | 29427 ft | 534 kts | 80° |
| 2026-05-01 13:36 | 24.68134 | 45.48538 | 28619 ft | 530 kts | 80° |
| 2026-05-01 13:36 | 24.69427 | 45.56382 | 27269 ft | 518 kts | 80° |
| 2026-05-01 13:37 | 24.70065 | 45.60262 | 26586 ft | 513 kts | 80° |
| 2026-05-01 13:37 | 24.70694 | 45.64098 | 25963 ft | 507 kts | 80° |
| 2026-05-01 13:37 | 24.71363 | 45.67876 | 25336 ft | 501 kts | 76° |
| 2026-05-01 13:37 | 24.72328 | 45.71536 | 24735 ft | 495 kts | 72° |
| 2026-05-01 13:38 | 24.74291 | 45.78698 | 23577 ft | 483 kts | 72° |
| 2026-05-01 13:38 | 24.75252 | 45.82220 | 22919 ft | 478 kts | 73° |
| 2026-05-01 13:38 | 24.76200 | 45.85700 | 22249 ft | 472 kts | 73° |
| 2026-05-01 13:39 | 24.77002 | 45.88646 | 21684 ft | 468 kts | 73° |
| 2026-05-01 13:39 | 24.77923 | 45.92035 | 21055 ft | 463 kts | 73° |
| 2026-05-01 13:39 | 24.78839 | 45.95408 | 20435 ft | 457 kts | 73° |
| 2026-05-01 13:39 | 24.79745 | 45.98747 | 19821 ft | 453 kts | 73° |
| 2026-05-01 13:40 | 24.80639 | 46.02047 | 19225 ft | 448 kts | 73° |
| 2026-05-01 13:40 | 24.81523 | 46.05312 | 18641 ft | 443 kts | 74° |
| 2026-05-01 13:40 | 24.82399 | 46.08548 | 18027 ft | 439 kts | 74° |
| 2026-05-01 13:40 | 24.83266 | 46.11757 | 17345 ft | 435 kts | 74° |
| 2026-05-01 13:41 | 24.84123 | 46.14931 | 16699 ft | 430 kts | 74° |
| 2026-05-01 13:41 | 24.84971 | 46.18073 | 16022 ft | 427 kts | 74° |
| 2026-05-01 13:41 | 24.85813 | 46.21199 | 15390 ft | 423 kts | 74° |
| 2026-05-01 13:41 | 24.86644 | 46.24283 | 14761 ft | 420 kts | 74° |
| 2026-05-01 13:42 | 24.87471 | 46.27359 | 14137 ft | 417 kts | 74° |
| 2026-05-01 13:42 | 24.88289 | 46.30404 | 13541 ft | 413 kts | 74° |
| 2026-05-01 13:42 | 24.89101 | 46.33424 | 12918 ft | 409 kts | 74° |
| 2026-05-01 13:42 | 24.90108 | 46.36330 | 12290 ft | 406 kts | 61° |
| 2026-05-01 13:43 | 24.91773 | 46.38755 | 11712 ft | 401 kts | 43° |
| 2026-05-01 13:43 | 24.94011 | 46.40524 | 11101 ft | 394 kts | 24° |
| 2026-05-01 13:43 | 24.96581 | 46.41429 | 10548 ft | 384 kts | 4° |
| 2026-05-01 13:43 | 24.99176 | 46.41414 | 10383 ft | 362 kts | 347° |
| 2026-05-01 13:44 | 25.01578 | 46.40845 | 10249 ft | 345 kts | 343° |
| 2026-05-01 13:44 | 25.03871 | 46.40271 | 10127 ft | 331 kts | 342° |
| 2026-05-01 13:44 | 25.06074 | 46.39718 | 10014 ft | 318 kts | 343° |
| 2026-05-01 13:44 | 25.08253 | 46.39535 | 9763 ft | 317 kts | 4° |
| 2026-05-01 13:45 | 25.10349 | 46.40288 | 9324 ft | 320 kts | 28° |
| 2026-05-01 13:45 | 25.12016 | 46.41894 | 8901 ft | 319 kts | 54° |
| 2026-05-01 13:45 | 25.12992 | 46.44055 | 8541 ft | 314 kts | 73° |
| 2026-05-01 13:45 | 25.13576 | 46.46353 | 8221 ft | 308 kts | 77° |
| 2026-05-01 13:46 | 25.14142 | 46.48605 | 8029 ft | 299 kts | 75° |
| 2026-05-01 13:46 | 25.14773 | 46.50750 | 7903 ft | 288 kts | 72° |
| 2026-05-01 13:46 | 25.15395 | 46.52795 | 7806 ft | 274 kts | 82° |
| 2026-05-01 13:46 | 25.15350 | 46.54805 | 7690 ft | 255 kts | 110° |
| 2026-05-01 13:47 | 25.14501 | 46.56435 | 7460 ft | 241 kts | 139° |
| 2026-05-01 13:47 | 25.13140 | 46.57445 | 7132 ft | 235 kts | 154° |
| 2026-05-01 13:47 | 25.11710 | 46.58261 | 6953 ft | 225 kts | 154° |
| 2026-05-01 13:47 | 25.10389 | 46.59048 | 6856 ft | 212 kts | 152° |
| 2026-05-01 13:48 | 25.09140 | 46.59834 | 6730 ft | 201 kts | 152° |
| 2026-05-01 13:48 | 25.07972 | 46.60579 | 6495 ft | 188 kts | 151° |
| 2026-05-01 13:48 | 25.06857 | 46.61276 | 6147 ft | 181 kts | 151° |
| 2026-05-01 13:48 | 25.05782 | 46.61968 | 5764 ft | 176 kts | 150° |
| 2026-05-01 13:49 | 25.04743 | 46.62658 | 5261 ft | 173 kts | 149° |
| 2026-05-01 13:49 | 25.03730 | 46.63336 | 4769 ft | 168 kts | 149° |
| 2026-05-01 13:49 | 25.02728 | 46.63970 | 4229 ft | 165 kts | 150° |
| 2026-05-01 13:49 | 25.01727 | 46.64555 | 3774 ft | 161 kts | 153° |
| 2026-05-01 13:50 | 25.00743 | 46.65157 | 3261 ft | 162 kts | 149° |
| 2026-05-01 13:50 | 24.99773 | 46.65781 | 2788 ft | 160 kts | 149° |
| 2026-05-01 13:50 | 24.98825 | 46.66369 | 2516 ft | 148 kts | 149° |
| 2026-05-01 13:50 | 24.97986 | 46.66930 | 2314 ft | 135 kts | 147° |
| 2026-05-01 13:51 | 24.97204 | 46.67435 | 2122 ft | 126 kts | 152° |
| 2026-05-01 13:51 | 24.96465 | 46.67892 | 2059 ft | 92 kts | 150° |
| 2026-05-01 13:51 | 24.96203 | 46.68057 | 2058 ft | 27 kts | 146° |
| 2026-05-01 13:51 | 24.96059 | 46.68194 | 2056 ft | 28 kts | 127° |
| 2026-05-01 13:52 | 24.96007 | 46.68382 | 2055 ft | 12 kts | 78° |
| 2026-05-01 13:52 | 24.96031 | 46.68444 | 2055 ft | 10 kts | 62° |
| 2026-05-01 13:52 | 24.96029 | 46.68506 | 2055 ft | 5 kts | 148° |
| 2026-05-01 13:52 | 24.95988 | 46.68532 | 2055 ft | 8 kts | 149° |
| 2026-05-01 13:53 | 24.95920 | 46.68575 | 2055 ft | 22 kts | 150° |
| 2026-05-01 13:53 | 24.95601 | 46.68775 | 2054 ft | 24 kts | 146° |
| 2026-05-01 13:53 | 24.95577 | 46.68890 | 2053 ft | 12 kts | 49° |
| 2026-05-01 13:54 | 24.95620 | 46.68981 | 2053 ft | 15 kts | 60° |
| 2026-05-01 13:54 | 24.95702 | 46.69040 | 2052 ft | 15 kts | 343° |
| 2026-05-01 13:54 | 24.95771 | 46.69066 | 2052 ft | 9 kts | 59° |
| 2026-05-01 13:54 | 24.95795 | 46.69109 | 2052 ft | 0 kts | 59° |